Andover, New Hampshire
Current Conditions -  °F | °C
As of 8:15 PM on Thursday 27 Nov 2014 (Local Time) from KLCI Reporting Station
Overcast Overcast  
Wind Chill: -2°   Ceiling: 1800
Heat Index: -2°   Visibility: 10mi
Dew Point: -6°   Wind: 0mph
Humidity: 74%   Direction: NA
Pressure: 29.98"   Gusts: NA
Location:  43.44°N, 71.82°W
Report Text: KLCI 280115Z AUTO 00000KT 10SM OVC018 M02/M06 A2998 RMK AO1
Loading
Personal Weather Stations






























Interactive Weather Map New forecast layout! Learn more

10-Day Weather Forecast

Advertisements
Track Severe Weather on mobile